sensor_id;sensor_type;location;lat;lon;timestamp;temperature;humidity
74661;SHT31;63191;39.566;2.654;2023-02-15T00:01:08;11.62;67.52
74661;SHT31;63191;39.566;2.654;2023-02-15T00:03:36;11.56;67.59
74661;SHT31;63191;39.566;2.654;2023-02-15T00:06:02;11.52;67.66
74661;SHT31;63191;39.566;2.654;2023-02-15T00:08:29;11.48;67.70
74661;SHT31;63191;39.566;2.654;2023-02-15T00:11:08;11.44;67.78
74661;SHT31;63191;39.566;2.654;2023-02-15T00:13:37;11.38;67.81
74661;SHT31;63191;39.566;2.654;2023-02-15T00:16:07;11.34;67.89
74661;SHT31;63191;39.566;2.654;2023-02-15T00:18:35;11.32;67.90
74661;SHT31;63191;39.566;2.654;2023-02-15T00:21:07;11.30;67.90
74661;SHT31;63191;39.566;2.654;2023-02-15T00:23:35;11.30;67.95
74661;SHT31;63191;39.566;2.654;2023-02-15T00:26:10;11.29;68.00
74661;SHT31;63191;39.566;2.654;2023-02-15T00:28:37;11.26;68.04
74661;SHT31;63191;39.566;2.654;2023-02-15T00:31:04;11.23;68.10
74661;SHT31;63191;39.566;2.654;2023-02-15T00:33:32;11.20;68.17
74661;SHT31;63191;39.566;2.654;2023-02-15T00:35:59;11.16;68.26
74661;SHT31;63191;39.566;2.654;2023-02-15T00:38:27;11.13;68.30
74661;SHT31;63191;39.566;2.654;2023-02-15T00:40:54;11.09;68.30
74661;SHT31;63191;39.566;2.654;2023-02-15T00:43:21;11.06;68.39
74661;SHT31;63191;39.566;2.654;2023-02-15T00:45:47;11.00;68.40
74661;SHT31;63191;39.566;2.654;2023-02-15T00:48:13;10.97;68.41
74661;SHT31;63191;39.566;2.654;2023-02-15T00:50:39;10.91;68.49
74661;SHT31;63191;39.566;2.654;2023-02-15T00:53:05;10.86;68.51
74661;SHT31;63191;39.566;2.654;2023-02-15T00:55:32;10.81;68.60
74661;SHT31;63191;39.566;2.654;2023-02-15T00:57:58;10.77;68.70
74661;SHT31;63191;39.566;2.654;2023-02-15T01:00:24;10.73;68.74
74661;SHT31;63191;39.566;2.654;2023-02-15T01:02:50;10.70;68.80
74661;SHT31;63191;39.566;2.654;2023-02-15T01:05:16;10.70;68.80
74661;SHT31;63191;39.566;2.654;2023-02-15T01:07:42;10.69;68.88
74661;SHT31;63191;39.566;2.654;2023-02-15T01:10:08;10.67;68.93
74661;SHT31;63191;39.566;2.654;2023-02-15T01:12:34;10.65;69.05
74661;SHT31;63191;39.566;2.654;2023-02-15T01:15:00;10.61;69.11
74661;SHT31;63191;39.566;2.654;2023-02-15T01:17:25;10.59;69.16
74661;SHT31;63191;39.566;2.654;2023-02-15T01:19:51;10.54;69.27
74661;SHT31;63191;39.566;2.654;2023-02-15T01:22:18;10.50;69.35
74661;SHT31;63191;39.566;2.654;2023-02-15T01:24:44;10.46;69.42
74661;SHT31;63191;39.566;2.654;2023-02-15T01:27:10;10.42;69.56
74661;SHT31;63191;39.566;2.654;2023-02-15T01:29:36;10.39;69.60
74661;SHT31;63191;39.566;2.654;2023-02-15T01:32:02;10.34;69.69
74661;SHT31;63191;39.566;2.654;2023-02-15T01:34:28;10.29;69.76
74661;SHT31;63191;39.566;2.654;2023-02-15T01:36:55;10.25;69.87
74661;SHT31;63191;39.566;2.654;2023-02-15T01:39:21;10.21;69.95
74661;SHT31;63191;39.566;2.654;2023-02-15T01:41:47;10.19;70.01
74661;SHT31;63191;39.566;2.654;2023-02-15T01:44:40;10.19;70.10
74661;SHT31;63191;39.566;2.654;2023-02-15T01:50:23;10.15;70.31
74661;SHT31;63191;39.566;2.654;2023-02-15T01:55:38;10.09;70.50
74661;SHT31;63191;39.566;2.654;2023-02-15T01:58:09;10.07;70.56
74661;SHT31;63191;39.566;2.654;2023-02-15T02:00:35;10.04;70.61
74661;SHT31;63191;39.566;2.654;2023-02-15T02:03:01;10.00;70.67
74661;SHT31;63191;39.566;2.654;2023-02-15T02:05:27;9.98;70.76
74661;SHT31;63191;39.566;2.654;2023-02-15T02:07:54;9.94;70.80
74661;SHT31;63191;39.566;2.654;2023-02-15T02:10:24;9.94;70.90
74661;SHT31;63191;39.566;2.654;2023-02-15T02:12:55;9.94;70.90
74661;SHT31;63191;39.566;2.654;2023-02-15T02:15:47;9.94;70.92
74661;SHT31;63191;39.566;2.654;2023-02-15T02:21:12;9.91;71.06
74661;SHT31;63191;39.566;2.654;2023-02-15T02:30:19;9.82;71.30
74661;SHT31;63191;39.566;2.654;2023-02-15T02:39:06;9.74;71.41
74661;SHT31;63191;39.566;2.654;2023-02-15T02:42:16;9.75;71.44
74661;SHT31;63191;39.566;2.654;2023-02-15T02:45:06;9.75;71.50
74661;SHT31;63191;39.566;2.654;2023-02-15T02:50:18;9.71;71.53
74661;SHT31;63191;39.566;2.654;2023-02-15T02:52:50;9.69;71.51
74661;SHT31;63191;39.566;2.654;2023-02-15T02:58:00;9.62;71.61
74661;SHT31;63191;39.566;2.654;2023-02-15T03:03:41;9.58;71.78
74661;SHT31;63191;39.566;2.654;2023-02-15T03:12:09;9.62;71.90
74661;SHT31;63191;39.566;2.654;2023-02-15T03:14:40;9.66;71.88
74661;SHT31;63191;39.566;2.654;2023-02-15T03:17:10;9.68;71.87
74661;SHT31;63191;39.566;2.654;2023-02-15T03:19:37;9.70;71.84
74661;SHT31;63191;39.566;2.654;2023-02-15T03:22:26;9.70;71.82
74661;SHT31;63191;39.566;2.654;2023-02-15T03:28:04;9.70;71.90
74661;SHT31;63191;39.566;2.654;2023-02-15T03:30:35;9.69;71.90
74661;SHT31;63191;39.566;2.654;2023-02-15T03:33:03;9.71;71.90
74661;SHT31;63191;39.566;2.654;2023-02-15T03:35:34;9.70;71.87
74661;SHT31;63191;39.566;2.654;2023-02-15T03:38:07;9.69;71.87
74661;SHT31;63191;39.566;2.654;2023-02-15T03:40:34;9.69;71.88
74661;SHT31;63191;39.566;2.654;2023-02-15T03:43:29;9.69;71.84
74661;SHT31;63191;39.566;2.654;2023-02-15T03:49:09;9.69;71.80
74661;SHT31;63191;39.566;2.654;2023-02-15T03:51:42;9.72;71.80
74661;SHT31;63191;39.566;2.654;2023-02-15T03:54:23;9.75;71.80
74661;SHT31;63191;39.566;2.654;2023-02-15T04:00:25;9.77;71.68
74661;SHT31;63191;39.566;2.654;2023-02-15T04:05:41;9.75;71.76
74661;SHT31;63191;39.566;2.654;2023-02-15T04:08:09;9.75;71.77
74661;SHT31;63191;39.566;2.654;2023-02-15T04:10:36;9.75;71.71
74661;SHT31;63191;39.566;2.654;2023-02-15T04:13:18;9.74;71.69
74661;SHT31;63191;39.566;2.654;2023-02-15T04:15:49;9.73;71.67
74661;SHT31;63191;39.566;2.654;2023-02-15T04:18:28;9.71;71.69
74661;SHT31;63191;39.566;2.654;2023-02-15T04:21:32;9.70;71.69
74661;SHT31;63191;39.566;2.654;2023-02-15T04:24:17;9.70;71.60
74661;SHT31;63191;39.566;2.654;2023-02-15T04:27:02;9.71;71.51
74661;SHT31;63191;39.566;2.654;2023-02-15T04:29:30;9.70;71.57
74661;SHT31;63191;39.566;2.654;2023-02-15T04:31:57;9.70;71.60
74661;SHT31;63191;39.566;2.654;2023-02-15T04:34:25;9.68;71.60
74661;SHT31;63191;39.566;2.654;2023-02-15T04:36:51;9.67;71.62
74661;SHT31;63191;39.566;2.654;2023-02-15T04:39:18;9.66;71.66
74661;SHT31;63191;39.566;2.654;2023-02-15T04:41:45;9.64;71.63
74661;SHT31;63191;39.566;2.654;2023-02-15T04:44:12;9.62;71.66
74661;SHT31;63191;39.566;2.654;2023-02-15T04:46:38;9.58;71.64
74661;SHT31;63191;39.566;2.654;2023-02-15T04:49:04;9.56;71.63
74661;SHT31;63191;39.566;2.654;2023-02-15T04:51:31;9.52;71.70
74661;SHT31;63191;39.566;2.654;2023-02-15T04:53:56;9.48;71.73
74661;SHT31;63191;39.566;2.654;2023-02-15T04:56:22;9.46;71.80
74661;SHT31;63191;39.566;2.654;2023-02-15T04:58:48;9.45;71.80
74661;SHT31;63191;39.566;2.654;2023-02-15T05:01:14;9.45;71.82
74661;SHT31;63191;39.566;2.654;2023-02-15T05:03:40;9.45;71.89
74661;SHT31;63191;39.566;2.654;2023-02-15T05:06:06;9.45;71.90
74661;SHT31;63191;39.566;2.654;2023-02-15T05:08:32;9.44;71.97
74661;SHT31;63191;39.566;2.654;2023-02-15T05:10:58;9.42;71.99
74661;SHT31;63191;39.566;2.654;2023-02-15T05:13:24;9.40;72.04
74661;SHT31;63191;39.566;2.654;2023-02-15T05:15:51;9.37;72.10
74661;SHT31;63191;39.566;2.654;2023-02-15T05:18:18;9.36;72.10
74661;SHT31;63191;39.566;2.654;2023-02-15T05:20:46;9.35;72.11
74661;SHT31;63191;39.566;2.654;2023-02-15T05:23:13;9.32;72.16
74661;SHT31;63191;39.566;2.654;2023-02-15T05:25:39;9.31;72.17
74661;SHT31;63191;39.566;2.654;2023-02-15T05:28:24;9.34;72.18
74661;SHT31;63191;39.566;2.654;2023-02-15T05:31:09;9.35;72.19
74661;SHT31;63191;39.566;2.654;2023-02-15T05:33:37;9.36;72.20
74661;SHT31;63191;39.566;2.654;2023-02-15T05:36:03;9.35;72.19
74661;SHT31;63191;39.566;2.654;2023-02-15T05:38:30;9.33;72.19
74661;SHT31;63191;39.566;2.654;2023-02-15T05:40:57;9.31;72.21
74661;SHT31;63191;39.566;2.654;2023-02-15T05:43:24;9.28;72.20
74661;SHT31;63191;39.566;2.654;2023-02-15T05:45:52;9.26;72.24
74661;SHT31;63191;39.566;2.654;2023-02-15T05:48:20;9.22;72.23
74661;SHT31;63191;39.566;2.654;2023-02-15T05:53:38;9.15;72.40
74661;SHT31;63191;39.566;2.654;2023-02-15T05:56:07;9.13;72.48
74661;SHT31;63191;39.566;2.654;2023-02-15T05:58:36;9.09;72.58
74661;SHT31;63191;39.566;2.654;2023-02-15T06:01:17;9.08;72.58
74661;SHT31;63191;39.566;2.654;2023-02-15T06:03:46;9.09;72.61
74661;SHT31;63191;39.566;2.654;2023-02-15T06:06:12;9.09;72.70
74661;SHT31;63191;39.566;2.654;2023-02-15T06:08:38;9.10;72.78
74661;SHT31;63191;39.566;2.654;2023-02-15T06:11:08;9.09;72.81
74661;SHT31;63191;39.566;2.654;2023-02-15T06:13:35;9.09;72.80
74661;SHT31;63191;39.566;2.654;2023-02-15T06:16:01;9.09;72.88
74661;SHT31;63191;39.566;2.654;2023-02-15T06:18:27;9.06;72.89
74661;SHT31;63191;39.566;2.654;2023-02-15T06:20:52;9.05;72.87
74661;SHT31;63191;39.566;2.654;2023-02-15T06:23:18;9.03;72.80
74661;SHT31;63191;39.566;2.654;2023-02-15T06:25:44;9.01;72.87
74661;SHT31;63191;39.566;2.654;2023-02-15T06:28:11;9.01;72.88
74661;SHT31;63191;39.566;2.654;2023-02-15T06:30:38;9.01;72.90
74661;SHT31;63191;39.566;2.654;2023-02-15T06:33:03;9.02;72.90
74661;SHT31;63191;39.566;2.654;2023-02-15T06:35:29;9.04;72.94
74661;SHT31;63191;39.566;2.654;2023-02-15T06:37:56;9.05;72.97
74661;SHT31;63191;39.566;2.654;2023-02-15T06:40:22;9.06;72.99
74661;SHT31;63191;39.566;2.654;2023-02-15T06:42:48;9.07;73.03
74661;SHT31;63191;39.566;2.654;2023-02-15T06:45:14;9.07;73.02
74661;SHT31;63191;39.566;2.654;2023-02-15T06:47:40;9.09;73.09
74661;SHT31;63191;39.566;2.654;2023-02-15T06:50:06;9.10;73.08
74661;SHT31;63191;39.566;2.654;2023-02-15T06:52:33;9.14;73.05
74661;SHT31;63191;39.566;2.654;2023-02-15T06:54:59;9.18;72.94
74661;SHT31;63191;39.566;2.654;2023-02-15T06:57:24;9.24;72.90
74661;SHT31;63191;39.566;2.654;2023-02-15T06:59:50;9.31;72.80
74661;SHT31;63191;39.566;2.654;2023-02-15T07:02:17;9.39;72.73
74661;SHT31;63191;39.566;2.654;2023-02-15T07:04:43;9.47;72.65
74661;SHT31;63191;39.566;2.654;2023-02-15T07:07:09;9.53;72.54
74661;SHT31;63191;39.566;2.654;2023-02-15T07:09:37;9.58;72.39
74661;SHT31;63191;39.566;2.654;2023-02-15T07:12:03;9.63;72.25
74661;SHT31;63191;39.566;2.654;2023-02-15T07:14:48;9.69;72.15
74661;SHT31;63191;39.566;2.654;2023-02-15T07:17:14;9.90;72.05
74661;SHT31;63191;39.566;2.654;2023-02-15T07:19:40;10.23;71.68
74661;SHT31;63191;39.566;2.654;2023-02-15T07:22:06;10.87;70.76
74661;SHT31;63191;39.566;2.654;2023-02-15T07:24:33;11.32;69.96
74661;SHT31;63191;39.566;2.654;2023-02-15T07:26:59;11.36;69.47
74661;SHT31;63191;39.566;2.654;2023-02-15T07:29:25;11.39;68.86
74661;SHT31;63191;39.566;2.654;2023-02-15T07:31:53;11.36;68.43
74661;SHT31;63191;39.566;2.654;2023-02-15T07:34:20;11.32;68.13
74661;SHT31;63191;39.566;2.654;2023-02-15T07:36:46;11.28;67.94
74661;SHT31;63191;39.566;2.654;2023-02-15T07:39:12;11.22;67.80
74661;SHT31;63191;39.566;2.654;2023-02-15T07:41:38;11.21;67.71
74661;SHT31;63191;39.566;2.654;2023-02-15T07:44:03;11.19;67.65
74661;SHT31;63191;39.566;2.654;2023-02-15T07:46:29;11.19;67.55
74661;SHT31;63191;39.566;2.654;2023-02-15T07:48:56;11.21;67.42
74661;SHT31;63191;39.566;2.654;2023-02-15T07:51:22;11.25;67.36
74661;SHT31;63191;39.566;2.654;2023-02-15T07:53:48;11.32;67.22
74661;SHT31;63191;39.566;2.654;2023-02-15T07:56:14;11.42;67.05
74661;SHT31;63191;39.566;2.654;2023-02-15T07:58:40;11.54;66.84
74661;SHT31;63191;39.566;2.654;2023-02-15T08:01:32;11.73;66.56
74661;SHT31;63191;39.566;2.654;2023-02-15T08:04:00;12.00;66.16
74661;SHT31;63191;39.566;2.654;2023-02-15T08:06:28;12.74;65.51
74661;SHT31;63191;39.566;2.654;2023-02-15T08:08:56;13.59;64.69
74661;SHT31;63191;39.566;2.654;2023-02-15T08:11:23;14.61;63.15
74661;SHT31;63191;39.566;2.654;2023-02-15T08:16:50;15.23;60.47
74661;SHT31;63191;39.566;2.654;2023-02-15T08:19:21;15.47;59.28
74661;SHT31;63191;39.566;2.654;2023-02-15T08:21:54;16.53;57.84
74661;SHT31;63191;39.566;2.654;2023-02-15T08:24:23;18.13;56.39
74661;SHT31;63191;39.566;2.654;2023-02-15T08:26:55;19.87;54.21
74661;SHT31;63191;39.566;2.654;2023-02-15T08:29:22;21.50;51.11
74661;SHT31;63191;39.566;2.654;2023-02-15T08:31:58;22.95;47.90
74661;SHT31;63191;39.566;2.654;2023-02-15T08:34:29;24.31;45.17
74661;SHT31;63191;39.566;2.654;2023-02-15T08:36:56;25.61;42.93
74661;SHT31;63191;39.566;2.654;2023-02-15T08:39:26;26.24;40.38
74661;SHT31;63191;39.566;2.654;2023-02-15T08:41:51;25.94;38.36
74661;SHT31;63191;39.566;2.654;2023-02-15T08:44:18;25.40;37.98
74661;SHT31;63191;39.566;2.654;2023-02-15T08:46:45;24.98;37.47
74661;SHT31;63191;39.566;2.654;2023-02-15T08:49:17;25.02;37.53
74661;SHT31;63191;39.566;2.654;2023-02-15T08:51:46;25.14;37.38
74661;SHT31;63191;39.566;2.654;2023-02-15T08:54:14;25.17;36.90
74661;SHT31;63191;39.566;2.654;2023-02-15T08:56:43;25.54;36.65
74661;SHT31;63191;39.566;2.654;2023-02-15T08:59:20;26.15;36.13
74661;SHT31;63191;39.566;2.654;2023-02-15T09:01:48;26.36;35.48
74661;SHT31;63191;39.566;2.654;2023-02-15T09:04:16;26.17;35.17
74661;SHT31;63191;39.566;2.654;2023-02-15T09:06:43;25.69;35.18
74661;SHT31;63191;39.566;2.654;2023-02-15T09:09:11;25.22;35.22
74661;SHT31;63191;39.566;2.654;2023-02-15T09:11:41;24.76;35.31
74661;SHT31;63191;39.566;2.654;2023-02-15T09:14:10;24.24;35.30
74661;SHT31;63191;39.566;2.654;2023-02-15T09:16:39;23.68;35.69
74661;SHT31;63191;39.566;2.654;2023-02-15T09:19:07;23.17;36.33
74661;SHT31;63191;39.566;2.654;2023-02-15T09:21:35;22.79;36.85
74661;SHT31;63191;39.566;2.654;2023-02-15T09:24:04;22.49;37.36
74661;SHT31;63191;39.566;2.654;2023-02-15T09:26:34;22.34;37.93
74661;SHT31;63191;39.566;2.654;2023-02-15T09:29:05;22.28;38.27
74661;SHT31;63191;39.566;2.654;2023-02-15T09:31:33;22.28;38.55
74661;SHT31;63191;39.566;2.654;2023-02-15T09:34:03;22.48;39.01
74661;SHT31;63191;39.566;2.654;2023-02-15T09:36:33;22.94;39.03
74661;SHT31;63191;39.566;2.654;2023-02-15T09:39:04;23.69;38.92
74661;SHT31;63191;39.566;2.654;2023-02-15T09:44:30;25.65;36.72
74661;SHT31;63191;39.566;2.654;2023-02-15T09:50:53;28.97;32.38
74661;SHT31;63191;39.566;2.654;2023-02-15T09:53:50;30.11;30.02
74661;SHT31;63191;39.566;2.654;2023-02-15T09:56:31;31.11;28.70
74661;SHT31;63191;39.566;2.654;2023-02-15T10:07:04;35.58;24.91
74661;SHT31;63191;39.566;2.654;2023-02-15T10:09:55;36.59;23.85
74661;SHT31;63191;39.566;2.654;2023-02-15T10:12:55;37.29;22.79
74661;SHT31;63191;39.566;2.654;2023-02-15T10:18:55;37.71;20.95
74661;SHT31;63191;39.566;2.654;2023-02-15T10:27:39;38.66;19.61
74661;SHT31;63191;39.566;2.654;2023-02-15T10:33:08;38.15;18.95
74661;SHT31;63191;39.566;2.654;2023-02-15T10:38:42;36.82;19.49
74661;SHT31;63191;39.566;2.654;2023-02-15T10:55:55;34.63;20.44
74661;SHT31;63191;39.566;2.654;2023-02-15T10:58:38;34.42;20.98
74661;SHT31;63191;39.566;2.654;2023-02-15T11:01:59;35.24;20.46
74661;SHT31;63191;39.566;2.654;2023-02-15T11:04:53;36.07;19.86
74661;SHT31;63191;39.566;2.654;2023-02-15T11:07:37;36.12;19.55
74661;SHT31;63191;39.566;2.654;2023-02-15T11:10:24;36.70;19.21
74661;SHT31;63191;39.566;2.654;2023-02-15T11:12:58;37.68;18.88
74661;SHT31;63191;39.566;2.654;2023-02-15T11:15:42;38.29;18.13
74661;SHT31;63191;39.566;2.654;2023-02-15T11:21:13;40.18;17.55
74661;SHT31;63191;39.566;2.654;2023-02-15T11:23:48;41.09;16.64
74661;SHT31;63191;39.566;2.654;2023-02-15T11:29:25;41.67;15.74
74661;SHT31;63191;39.566;2.654;2023-02-15T11:32:03;41.14;15.97
74661;SHT31;63191;39.566;2.654;2023-02-15T11:35:32;41.61;16.02
74661;SHT31;63191;39.566;2.654;2023-02-15T11:37:43;40.72;15.84
74661;SHT31;63191;39.566;2.654;2023-02-15T11:40:17;39.60;16.56
74661;SHT31;63191;39.566;2.654;2023-02-15T11:42:55;38.42;17.11
74661;SHT31;63191;39.566;2.654;2023-02-15T11:47:54;38.27;16.93
74661;SHT31;63191;39.566;2.654;2023-02-15T11:50:22;37.31;17.86
74661;SHT31;63191;39.566;2.654;2023-02-15T11:53:04;35.69;19.10
74661;SHT31;63191;39.566;2.654;2023-02-15T11:55:38;33.01;21.20
74661;SHT31;63191;39.566;2.654;2023-02-15T11:58:05;31.77;22.37
74661;SHT31;63191;39.566;2.654;2023-02-15T12:01:16;31.50;23.01
74661;SHT31;63191;39.566;2.654;2023-02-15T12:03:55;31.13;23.30
74661;SHT31;63191;39.566;2.654;2023-02-15T12:06:28;30.73;23.75
74661;SHT31;63191;39.566;2.654;2023-02-15T12:09:03;30.70;23.81
74661;SHT31;63191;39.566;2.654;2023-02-15T12:11:44;31.33;24.12
74661;SHT31;63191;39.566;2.654;2023-02-15T12:14:10;32.04;23.50
74661;SHT31;63191;39.566;2.654;2023-02-15T12:16:44;32.16;23.12
74661;SHT31;63191;39.566;2.654;2023-02-15T12:20:00;31.89;23.28
74661;SHT31;63191;39.566;2.654;2023-02-15T12:22:24;32.24;23.07
74661;SHT31;63191;39.566;2.654;2023-02-15T12:25:00;32.95;22.61
74661;SHT31;63191;39.566;2.654;2023-02-15T12:27:36;33.77;21.98
74661;SHT31;63191;39.566;2.654;2023-02-15T12:30:25;35.03;21.08
74661;SHT31;63191;39.566;2.654;2023-02-15T12:33:46;34.97;20.56
74661;SHT31;63191;39.566;2.654;2023-02-15T12:36:00;35.40;20.85
74661;SHT31;63191;39.566;2.654;2023-02-15T12:38:35;35.86;20.34
74661;SHT31;63191;39.566;2.654;2023-02-15T12:41:03;35.54;19.88
74661;SHT31;63191;39.566;2.654;2023-02-15T12:43:48;34.41;20.90
74661;SHT31;63191;39.566;2.654;2023-02-15T12:46:29;33.97;22.25
74661;SHT31;63191;39.566;2.654;2023-02-15T12:49:05;33.71;22.47
74661;SHT31;63191;39.566;2.654;2023-02-15T12:51:59;34.06;22.66
74661;SHT31;63191;39.566;2.654;2023-02-15T12:54:36;34.98;21.92
74661;SHT31;63191;39.566;2.654;2023-02-15T13:02:23;35.54;21.34
74661;SHT31;63191;39.566;2.654;2023-02-15T13:08:27;35.32;21.66
74661;SHT31;63191;39.566;2.654;2023-02-15T13:11:00;35.51;21.79
74661;SHT31;63191;39.566;2.654;2023-02-15T13:13:32;35.78;21.51
74661;SHT31;63191;39.566;2.654;2023-02-15T13:16:03;34.96;21.49
74661;SHT31;63191;39.566;2.654;2023-02-15T13:18:35;33.37;22.79
74661;SHT31;63191;39.566;2.654;2023-02-15T13:21:16;31.59;24.49
74661;SHT31;63191;39.566;2.654;2023-02-15T13:23:47;29.98;26.09
74661;SHT31;63191;39.566;2.654;2023-02-15T13:26:22;28.75;27.68
74661;SHT31;63191;39.566;2.654;2023-02-15T13:28:56;27.70;29.12
74661;SHT31;63191;39.566;2.654;2023-02-15T13:31:33;26.77;31.31
74661;SHT31;63191;39.566;2.654;2023-02-15T13:34:08;26.09;32.42
74661;SHT31;63191;39.566;2.654;2023-02-15T13:42:14;23.64;36.45
74661;SHT31;63191;39.566;2.654;2023-02-15T13:53:10;21.36;42.26
74661;SHT31;63191;39.566;2.654;2023-02-15T14:08:11;20.35;44.44
74661;SHT31;63191;39.566;2.654;2023-02-15T14:20:52;19.36;45.69
74661;SHT31;63191;39.566;2.654;2023-02-15T14:23:38;18.99;47.23
74661;SHT31;63191;39.566;2.654;2023-02-15T14:31:40;18.24;49.74
74661;SHT31;63191;39.566;2.654;2023-02-15T14:34:19;18.22;49.81
74661;SHT31;63191;39.566;2.654;2023-02-15T14:36:53;18.14;50.30
74661;SHT31;63191;39.566;2.654;2023-02-15T14:39:26;17.99;50.76
74661;SHT31;63191;39.566;2.654;2023-02-15T14:42:30;17.96;51.65
74661;SHT31;63191;39.566;2.654;2023-02-15T14:48:15;17.93;51.76
74661;SHT31;63191;39.566;2.654;2023-02-15T14:50:45;17.75;51.96
74661;SHT31;63191;39.566;2.654;2023-02-15T14:53:16;17.59;52.22
74661;SHT31;63191;39.566;2.654;2023-02-15T14:58:36;17.44;53.63
74661;SHT31;63191;39.566;2.654;2023-02-15T15:01:06;17.34;54.37
74661;SHT31;63191;39.566;2.654;2023-02-15T15:03:34;17.18;54.84
74661;SHT31;63191;39.566;2.654;2023-02-15T15:06:01;17.11;55.41
74661;SHT31;63191;39.566;2.654;2023-02-15T15:08:32;17.21;55.77
74661;SHT31;63191;39.566;2.654;2023-02-15T15:13:56;17.67;55.27
74661;SHT31;63191;39.566;2.654;2023-02-15T15:16:28;17.94;54.50
74661;SHT31;63191;39.566;2.654;2023-02-15T15:18:57;18.12;53.73
74661;SHT31;63191;39.566;2.654;2023-02-15T15:32:38;17.90;53.58
74661;SHT31;63191;39.566;2.654;2023-02-15T15:42:18;16.88;56.44
74661;SHT31;63191;39.566;2.654;2023-02-15T15:50:46;16.12;59.04
74661;SHT31;63191;39.566;2.654;2023-02-15T15:53:18;16.02;59.44
74661;SHT31;63191;39.566;2.654;2023-02-15T15:55:49;15.93;59.73
74661;SHT31;63191;39.566;2.654;2023-02-15T15:58:20;15.87;60.00
74661;SHT31;63191;39.566;2.654;2023-02-15T16:00:47;15.83;60.30
74661;SHT31;63191;39.566;2.654;2023-02-15T16:03:21;15.78;60.69
74661;SHT31;63191;39.566;2.654;2023-02-15T16:05:51;15.72;60.94
74661;SHT31;63191;39.566;2.654;2023-02-15T16:11:14;15.51;61.99
74661;SHT31;63191;39.566;2.654;2023-02-15T16:13:46;15.48;62.33
74661;SHT31;63191;39.566;2.654;2023-02-15T16:16:12;15.47;62.48
74661;SHT31;63191;39.566;2.654;2023-02-15T16:18:38;15.46;62.72
74661;SHT31;63191;39.566;2.654;2023-02-15T16:21:12;15.41;63.03
74661;SHT31;63191;39.566;2.654;2023-02-15T16:29:40;15.29;63.34
74661;SHT31;63191;39.566;2.654;2023-02-15T16:32:15;15.26;63.51
74661;SHT31;63191;39.566;2.654;2023-02-15T16:37:19;15.20;63.76
74661;SHT31;63191;39.566;2.654;2023-02-15T16:39:49;15.18;63.80
74661;SHT31;63191;39.566;2.654;2023-02-15T16:42:16;15.16;63.79
74661;SHT31;63191;39.566;2.654;2023-02-15T16:44:47;15.15;63.80
74661;SHT31;63191;39.566;2.654;2023-02-15T16:47:27;15.14;63.80
74661;SHT31;63191;39.566;2.654;2023-02-15T16:49:57;15.11;63.76
74661;SHT31;63191;39.566;2.654;2023-02-15T16:52:26;15.06;63.72
74661;SHT31;63191;39.566;2.654;2023-02-15T16:54:57;15.02;63.81
74661;SHT31;63191;39.566;2.654;2023-02-15T16:57:28;14.97;63.92
74661;SHT31;63191;39.566;2.654;2023-02-15T17:00:02;14.90;64.06
74661;SHT31;63191;39.566;2.654;2023-02-15T17:02:39;14.85;64.11
74661;SHT31;63191;39.566;2.654;2023-02-15T17:05:20;14.82;64.11
74661;SHT31;63191;39.566;2.654;2023-02-15T17:07:51;14.79;64.12
74661;SHT31;63191;39.566;2.654;2023-02-15T17:10:46;14.76;64.12
74661;SHT31;63191;39.566;2.654;2023-02-15T17:16:34;14.67;64.18
74661;SHT31;63191;39.566;2.654;2023-02-15T17:19:07;14.62;64.29
74661;SHT31;63191;39.566;2.654;2023-02-15T17:21:41;14.58;64.33
74661;SHT31;63191;39.566;2.654;2023-02-15T17:24:16;14.55;64.45
74661;SHT31;63191;39.566;2.654;2023-02-15T17:26:58;14.48;64.51
74661;SHT31;63191;39.566;2.654;2023-02-15T17:29:36;14.43;64.59
74661;SHT31;63191;39.566;2.654;2023-02-15T17:32:19;14.39;64.66
74661;SHT31;63191;39.566;2.654;2023-02-15T17:35:08;14.36;64.74
74661;SHT31;63191;39.566;2.654;2023-02-15T17:38:02;14.32;64.84
74661;SHT31;63191;39.566;2.654;2023-02-15T17:40:44;14.31;64.90
74661;SHT31;63191;39.566;2.654;2023-02-15T17:43:10;14.29;64.90
74661;SHT31;63191;39.566;2.654;2023-02-15T17:45:40;14.28;64.97
74661;SHT31;63191;39.566;2.654;2023-02-15T17:48:16;14.28;65.09
74661;SHT31;63191;39.566;2.654;2023-02-15T17:50:47;14.26;65.20
74661;SHT31;63191;39.566;2.654;2023-02-15T17:53:17;14.26;65.30
74661;SHT31;63191;39.566;2.654;2023-02-15T17:55:44;14.24;65.30
74661;SHT31;63191;39.566;2.654;2023-02-15T17:58:11;14.22;65.33
74661;SHT31;63191;39.566;2.654;2023-02-15T18:00:48;14.22;65.42
74661;SHT31;63191;39.566;2.654;2023-02-15T18:03:45;14.26;65.60
74661;SHT31;63191;39.566;2.654;2023-02-15T18:06:32;14.32;65.59
74661;SHT31;63191;39.566;2.654;2023-02-15T18:09:19;14.35;65.35
74661;SHT31;63191;39.566;2.654;2023-02-15T18:12:39;14.37;65.02
74661;SHT31;63191;39.566;2.654;2023-02-15T18:15:02;14.38;64.64
74661;SHT31;63191;39.566;2.654;2023-02-15T18:17:31;14.37;64.36
74661;SHT31;63191;39.566;2.654;2023-02-15T18:20:02;14.36;64.12
74661;SHT31;63191;39.566;2.654;2023-02-15T18:22:32;14.33;63.85
74661;SHT31;63191;39.566;2.654;2023-02-15T18:24:58;14.31;63.54
74661;SHT31;63191;39.566;2.654;2023-02-15T18:27:24;14.27;63.13
74661;SHT31;63191;39.566;2.654;2023-02-15T18:29:50;14.23;62.78
74661;SHT31;63191;39.566;2.654;2023-02-15T18:32:21;14.18;62.58
74661;SHT31;63191;39.566;2.654;2023-02-15T18:34:55;14.11;62.60
74661;SHT31;63191;39.566;2.654;2023-02-15T18:37:28;14.04;62.69
74661;SHT31;63191;39.566;2.654;2023-02-15T18:40:00;13.98;62.83
74661;SHT31;63191;39.566;2.654;2023-02-15T18:42:29;13.90;63.15
74661;SHT31;63191;39.566;2.654;2023-02-15T18:45:00;13.84;63.29
74661;SHT31;63191;39.566;2.654;2023-02-15T18:47:43;13.76;63.39
74661;SHT31;63191;39.566;2.654;2023-02-15T18:50:11;13.70;63.48
74661;SHT31;63191;39.566;2.654;2023-02-15T18:52:38;13.63;63.55
74661;SHT31;63191;39.566;2.654;2023-02-15T18:55:12;13.55;63.68
74661;SHT31;63191;39.566;2.654;2023-02-15T18:57:45;13.48;63.72
74661;SHT31;63191;39.566;2.654;2023-02-15T19:00:13;13.42;63.90
74661;SHT31;63191;39.566;2.654;2023-02-15T19:02:41;13.38;64.15
74661;SHT31;63191;39.566;2.654;2023-02-15T19:05:07;13.37;64.16
74661;SHT31;63191;39.566;2.654;2023-02-15T19:07:33;13.36;64.29
74661;SHT31;63191;39.566;2.654;2023-02-15T19:10:00;13.33;64.47
74661;SHT31;63191;39.566;2.654;2023-02-15T19:12:29;13.28;64.61
74661;SHT31;63191;39.566;2.654;2023-02-15T19:14:55;13.23;64.88
74661;SHT31;63191;39.566;2.654;2023-02-15T19:17:22;13.19;65.07
74661;SHT31;63191;39.566;2.654;2023-02-15T19:19:49;13.16;65.18
74661;SHT31;63191;39.566;2.654;2023-02-15T19:24:55;13.11;65.80
74661;SHT31;63191;39.566;2.654;2023-02-15T19:27:26;13.09;66.03
74661;SHT31;63191;39.566;2.654;2023-02-15T19:29:56;13.09;66.19
74661;SHT31;63191;39.566;2.654;2023-02-15T19:32:24;13.09;66.27
74661;SHT31;63191;39.566;2.654;2023-02-15T19:34:52;13.09;66.34